»·PEaware :: N622SB M94-S36

N622SB :: M94-S36

FLIGHT INFORMATION

Flight Status: Arrived
Operator: Privately registered:
United States
More flights under this callsign
Pilot: Simon B. (27931)
Aircraft: BEECH AIRCRAFT BARON
(BE58)
More flights by this aircraft type
Origin: M94 Desert Aire
United States
Destination: S36 Norman Grier Field
United States
More flights between these airports :: More routes between these airports
Route:
File this flight plan on PilotEdge
Remarks:
Altitude:
(Current/Filed)
4,500ft
Speed:
(Current/Filed)
180kts
Departed: 06-Sep-20 05:56 PM
Arrived: 06-Sep-20 06:38 PM
Distance/Time
Traveled:
97nm/0:41
Distance/Time
To Go:
Arrived

Flight Plot

Page will automatically refresh every two minutes.

Flight plan parsing failed; only flown route is shown


Map Options




Map Legend


Flown Route
Filed Route
Departure Airport
Arrival Airport
Navaid (VOR, NDB)
Fix

Horizontal Profiles

Position Reports

Time Latitude Longitude Heading Altitude Ground
Speed
06-Sep-20 17:45 46.688247 -119.926711 143 559ft 0kts
06-Sep-20 17:46 46.688247 -119.926711 143 559ft 0kts
06-Sep-20 17:47 46.688247 -119.926711 143 559ft 0kts
06-Sep-20 17:48 46.688247 -119.926711 143 559ft 0kts
06-Sep-20 17:49 46.688121 -119.926823 277 558ft 5kts
06-Sep-20 17:50 46.688517 -119.926886 19 560ft 0kts
06-Sep-20 17:51 46.688840 -119.926625 20 563ft 0kts
06-Sep-20 17:52 46.686928 -119.920512 115 588ft 23kts
06-Sep-20 17:53 46.684648 -119.913475 46 614ft 2kts
06-Sep-20 17:54 46.684673 -119.913446 35 615ft 1kts
06-Sep-20 17:55 46.690070 -119.929141 294 945ft 122kts
06-Sep-20 17:56 46.723037 -119.922644 31 3140ft 155kts
06-Sep-20 17:57 46.759706 -119.887438 34 4510ft 172kts
06-Sep-20 17:58 46.799279 -119.847682 36 4634ft 180kts
06-Sep-20 17:59 46.842393 -119.814914 349 4672ft 179kts
06-Sep-20 18:00 46.885908 -119.851944 326 4415ft 177kts
06-Sep-20 18:01 46.912896 -119.907256 285 4668ft 173kts
06-Sep-20 18:02 46.927613 -119.976272 285 4554ft 180kts
06-Sep-20 18:03 46.940757 -120.046138 282 4516ft 178kts
06-Sep-20 18:04 46.952865 -120.116056 286 4531ft 177kts
06-Sep-20 18:05 46.966468 -120.185122 282 4557ft 176kts
06-Sep-20 18:06 46.978201 -120.255196 284 4577ft 177kts
06-Sep-20 18:07 46.994144 -120.323414 287 4606ft 177kts
06-Sep-20 18:08 47.006681 -120.393134 279 4630ft 176kts
06-Sep-20 18:09 47.022380 -120.461362 291 4645ft 177kts
06-Sep-20 18:10 47.034800 -120.531490 269 4461ft 181kts
06-Sep-20 18:11 47.046010 -120.599647 295 5529ft 176kts
06-Sep-20 18:12 47.066436 -120.662238 288 6894ft 171kts
06-Sep-20 18:13 47.080826 -120.728522 289 8042ft 171kts
06-Sep-20 18:14 47.096320 -120.796117 289 8694ft 180kts
06-Sep-20 18:15 47.113923 -120.867361 289 8655ft 186kts
06-Sep-20 18:16 47.130288 -120.938121 287 8630ft 188kts
06-Sep-20 18:17 47.143523 -121.012234 281 8537ft 187kts
06-Sep-20 18:18 47.157649 -121.085870 290 8472ft 186kts
06-Sep-20 18:19 47.173538 -121.157883 286 8518ft 185kts
06-Sep-20 18:20 47.188263 -121.230669 289 8569ft 185kts
06-Sep-20 18:21 47.205612 -121.301182 287 8632ft 185kts
06-Sep-20 18:22 47.224474 -121.372514 291 8590ft 187kts
06-Sep-20 18:23 47.242194 -121.444146 289 8569ft 187kts
06-Sep-20 18:24 47.261976 -121.514702 295 8151ft 186kts
06-Sep-20 18:25 47.283070 -121.584857 289 7496ft 187kts
06-Sep-20 18:26 47.303845 -121.654679 290 6913ft 185kts
06-Sep-20 18:27 47.319486 -121.726464 288 6089ft 181kts
06-Sep-20 18:28 47.339615 -121.794198 304 4965ft 181kts
06-Sep-20 18:29 47.359314 -121.859689 282 4126ft 174kts
06-Sep-20 18:30 47.366277 -121.930175 276 3407ft 173kts
06-Sep-20 18:31 47.358518 -121.996054 243 2678ft 165kts
06-Sep-20 18:32 47.346566 -122.056003 264 2454ft 153kts
06-Sep-20 18:33 47.340340 -122.115454 238 2142ft 151kts
06-Sep-20 18:34 47.340730 -122.152562 66 1546ft 147kts
06-Sep-20 18:35 47.319739 -122.117269 162 1468ft 132kts
06-Sep-20 18:36 47.318151 -122.098982 354 969ft 98kts
06-Sep-20 18:37 47.338758 -122.103957 351 478ft 21kts
06-Sep-20 18:38 47.340017 -122.103032 76 475ft 0kts
06-Sep-20 18:39 47.340017 -122.103032 76 475ft 0kts
06-Sep-20 18:40 47.340017 -122.103032 76 475ft 0kts
06-Sep-20 18:41 47.340017 -122.103032 76 475ft 0kts
06-Sep-20 18:42 47.340017 -122.103032 76 475ft 0kts
06-Sep-20 18:43 47.340017 -122.103032 76 475ft 0kts
06-Sep-20 18:44 47.340017 -122.103032 76 475ft 0kts
06-Sep-20 18:45 47.340017 -122.103032 76 475ft 0kts
06-Sep-20 18:46 47.340017 -122.103032 76 475ft 0kts
06-Sep-20 18:47 47.340017 -122.103032 76 475ft 0kts
06-Sep-20 18:48 47.340017 -122.103032 76 475ft 0kts
06-Sep-20 18:49 47.340017 -122.103032 76 475ft 0kts
06-Sep-20 18:50 47.340017 -122.103032 76 475ft 0kts
06-Sep-20 18:51 47.340017 -122.103032 76 475ft 0kts

Navigation Log

Ident Type
Flight plan parsing failed, navigation log unavailable